createdAt,value
2024-03-12T00:01:11.467Z,1999.90
2024-03-12T00:03:47.552Z,1999.90
2024-03-12T00:06:20.777Z,1999.90
2024-03-12T00:08:52.630Z,1999.90
2024-03-12T00:11:26.122Z,1999.90
2024-03-12T00:13:58.103Z,1999.90
2024-03-12T00:16:32.641Z,1999.90
2024-03-12T00:19:06.430Z,1999.90
2024-03-12T00:21:38.378Z,1999.90
2024-03-12T00:24:11.915Z,1999.90
2024-03-12T00:26:45.943Z,1999.90
2024-03-12T00:29:20.357Z,1999.90
2024-03-12T00:31:52.564Z,1999.90
2024-03-12T00:34:26.656Z,1999.90
2024-03-12T00:37:01.521Z,1999.90
2024-03-12T00:39:33.385Z,1999.90
2024-03-12T00:42:07.967Z,1999.90
2024-03-12T00:44:40.360Z,1999.90
2024-03-12T00:47:12.605Z,1999.90
2024-03-12T00:49:47.249Z,1999.90
2024-03-12T00:52:19.178Z,1999.90
2024-03-12T00:54:51.649Z,1999.90
2024-03-12T00:57:23.960Z,1999.90
2024-03-12T00:59:55.991Z,1999.90
2024-03-12T01:02:31.343Z,1999.90
2024-03-12T01:05:05.455Z,1999.90
2024-03-12T01:07:39.420Z,1999.90
2024-03-12T01:10:11.265Z,1999.90
2024-03-12T01:12:44.713Z,1999.90
2024-03-12T01:15:18.620Z,1999.90
2024-03-12T01:17:51.710Z,1999.90
2024-03-12T01:20:26.271Z,702.90
2024-03-12T01:22:59.069Z,701.87
2024-03-12T01:25:31.796Z,50.80
2024-03-12T01:28:05.903Z,53.00
2024-03-12T01:30:38.554Z,55.30
2024-03-12T01:33:11.605Z,52.77
2024-03-12T01:35:45.974Z,53.13
2024-03-12T01:38:20.228Z,53.00
2024-03-12T01:40:52.484Z,53.83
2024-03-12T01:43:24.279Z,56.77
2024-03-12T01:45:56.243Z,54.93
2024-03-12T01:48:28.178Z,54.00
2024-03-12T01:51:00.261Z,53.27
2024-03-12T01:53:33.313Z,55.57
2024-03-12T01:56:05.259Z,55.37
2024-03-12T01:58:37.572Z,56.70
2024-03-12T02:01:09.634Z,57.10
2024-03-12T02:03:41.654Z,58.07
2024-03-12T02:06:13.404Z,59.87
2024-03-12T02:08:45.719Z,57.70
2024-03-12T02:11:17.939Z,56.17
2024-03-12T02:13:52.355Z,58.77
2024-03-12T02:16:24.158Z,55.90
2024-03-12T02:18:55.944Z,63.73
2024-03-12T02:21:27.848Z,67.03
2024-03-12T02:23:59.589Z,72.37
2024-03-12T02:26:32.569Z,76.77
2024-03-12T02:29:08.655Z,80.97
2024-03-12T02:31:40.493Z,74.27
2024-03-12T02:34:12.324Z,77.50
2024-03-12T02:36:44.111Z,72.60
2024-03-12T02:39:16.006Z,72.37
2024-03-12T02:41:47.741Z,73.80
2024-03-12T02:44:22.489Z,71.20
2024-03-12T02:46:55.780Z,65.37
2024-03-12T02:49:27.688Z,68.77
2024-03-12T02:51:59.627Z,70.90
2024-03-12T02:54:31.667Z,66.13
2024-03-12T02:57:03.442Z,63.30
2024-03-12T02:59:35.379Z,64.80
2024-03-12T03:02:07.212Z,64.50
2024-03-12T03:04:41.128Z,64.73
2024-03-12T03:07:12.978Z,59.17
2024-03-12T03:09:45.545Z,60.37
2024-03-12T03:12:17.420Z,58.40
2024-03-12T03:14:49.174Z,56.87
2024-03-12T03:17:21.706Z,54.43
2024-03-12T03:19:53.760Z,54.30
2024-03-12T03:22:25.583Z,60.77
2024-03-12T03:24:57.405Z,50.17
2024-03-12T03:27:29.241Z,49.53
2024-03-12T03:30:01.244Z,48.53
2024-03-12T03:32:36.377Z,43.93
2024-03-12T03:35:08.512Z,48.37
2024-03-12T03:37:44.040Z,42.10
2024-03-12T03:40:23.817Z,44.13
2024-03-12T03:42:57.732Z,42.53
2024-03-12T03:45:29.811Z,41.83
2024-03-12T03:48:01.710Z,43.07
2024-03-12T03:50:33.672Z,45.83
2024-03-12T03:53:09.253Z,52.17
2024-03-12T03:55:41.148Z,45.77
2024-03-12T03:58:13.059Z,46.47
2024-03-12T04:00:45.261Z,46.37
2024-03-12T04:03:18.151Z,46.80
2024-03-12T04:05:49.913Z,43.93
2024-03-12T04:08:21.721Z,50.20
2024-03-12T04:10:53.963Z,53.70
2024-03-12T04:13:25.852Z,48.90
2024-03-12T04:15:57.948Z,44.37
2024-03-12T04:18:30.166Z,46.00
2024-03-12T04:21:02.207Z,45.27
2024-03-12T04:23:34.010Z,39.93
2024-03-12T04:26:05.958Z,42.30
2024-03-12T04:28:38.838Z,43.13
2024-03-12T04:31:11.108Z,40.63
2024-03-12T04:33:43.527Z,47.20
2024-03-12T04:36:15.532Z,45.43
2024-03-12T04:38:47.292Z,47.27
2024-03-12T04:41:21.603Z,49.43
2024-03-12T04:43:53.575Z,47.40
2024-03-12T04:46:25.367Z,45.37
2024-03-12T04:48:57.151Z,47.00
2024-03-12T04:51:28.969Z,45.60
2024-03-12T04:54:01.158Z,46.13
2024-03-12T04:56:33.038Z,37.27
2024-03-12T04:59:04.842Z,38.33
2024-03-12T05:01:36.703Z,35.37
2024-03-12T05:04:15.683Z,35.03
2024-03-12T05:06:51.125Z,39.27
2024-03-12T05:09:24.340Z,42.00
2024-03-12T05:11:56.163Z,36.23
2024-03-12T05:14:27.941Z,40.83
2024-03-12T05:17:00.451Z,38.87
2024-03-12T05:19:32.331Z,37.20
2024-03-12T05:22:04.208Z,37.97
2024-03-12T05:24:36.761Z,46.67
2024-03-12T05:27:08.791Z,38.63
2024-03-12T05:29:44.554Z,37.67
2024-03-12T05:32:19.474Z,42.40
2024-03-12T05:34:59.797Z,39.80
2024-03-12T05:37:42.082Z,39.93
2024-03-12T05:40:19.897Z,41.10
2024-03-12T05:43:10.627Z,47.47
2024-03-12T05:46:01.149Z,37.50
2024-03-12T05:48:33.027Z,35.33
2024-03-12T05:51:05.133Z,37.23
2024-03-12T05:53:39.999Z,38.37
2024-03-12T05:56:15.077Z,332.97
2024-03-12T05:58:49.120Z,40.07
2024-03-12T06:01:22.188Z,40.37
2024-03-12T06:03:57.093Z,54.30
2024-03-12T06:06:28.918Z,45.90
2024-03-12T06:09:00.960Z,45.27
2024-03-12T06:11:32.932Z,47.07
2024-03-12T06:14:06.961Z,41.87
2024-03-12T06:16:38.727Z,39.83
2024-03-12T06:19:11.564Z,37.97
2024-03-12T06:21:43.911Z,39.80
2024-03-12T06:24:15.987Z,56.93
2024-03-12T06:26:49.173Z,46.30
2024-03-12T06:29:22.118Z,45.00
2024-03-12T06:31:53.878Z,41.87
2024-03-12T06:34:28.251Z,53.83
2024-03-12T06:37:00.200Z,55.17
2024-03-12T06:39:36.864Z,54.30
2024-03-12T06:42:09.240Z,53.47
2024-03-12T06:44:43.537Z,63.20
2024-03-12T06:47:15.621Z,53.93
2024-03-12T06:49:48.836Z,54.20
2024-03-12T06:52:23.374Z,53.73
2024-03-12T06:54:55.390Z,66.20
2024-03-12T06:57:27.206Z,57.23
2024-03-12T07:00:00.530Z,60.87
2024-03-12T07:02:39.256Z,55.20
2024-03-12T07:05:11.058Z,57.10
2024-03-12T07:07:47.901Z,68.37
2024-03-12T07:10:19.910Z,74.40
2024-03-12T07:12:52.451Z,79.67
2024-03-12T07:15:25.937Z,722.67
2024-03-12T07:17:57.750Z,1999.90
2024-03-12T07:20:31.009Z,1999.90
2024-03-12T07:23:04.124Z,1999.90
2024-03-12T07:25:35.888Z,1999.90
2024-03-12T07:28:08.870Z,1999.90
2024-03-12T07:30:41.428Z,1999.90
2024-03-12T07:33:13.866Z,1999.90
2024-03-12T07:35:45.839Z,1999.90
2024-03-12T07:38:17.693Z,1999.90
2024-03-12T07:40:50.088Z,1999.90
2024-03-12T07:43:21.924Z,1999.90
2024-03-12T07:45:55.111Z,1999.90
2024-03-12T07:48:26.943Z,1999.90
2024-03-12T07:51:01.923Z,1999.90
2024-03-12T07:53:35.079Z,1999.90
2024-03-12T07:56:07.613Z,1999.90
2024-03-12T07:58:41.862Z,1999.90
2024-03-12T08:01:15.538Z,1999.90
2024-03-12T08:03:47.787Z,1999.90
2024-03-12T08:06:21.951Z,1999.90
2024-03-12T08:08:54.456Z,1999.90
2024-03-12T08:11:26.456Z,1999.90
2024-03-12T08:13:58.206Z,1999.90
2024-03-12T08:16:30.297Z,1999.90
2024-03-12T08:19:02.481Z,1999.90
2024-03-12T08:21:34.429Z,1999.90
2024-03-12T08:24:06.545Z,1999.90
2024-03-12T08:26:39.110Z,1999.90
2024-03-12T08:29:12.834Z,1999.90
2024-03-12T08:31:51.620Z,1999.90
2024-03-12T08:34:28.188Z,1999.90
2024-03-12T08:37:00.267Z,1999.90
2024-03-12T08:39:32.274Z,1999.90
2024-03-12T08:42:04.295Z,1999.90
2024-03-12T08:44:36.717Z,1999.90
2024-03-12T08:47:09.874Z,1999.90
2024-03-12T08:49:44.729Z,1999.90
2024-03-12T08:52:16.752Z,1999.90
2024-03-12T08:54:48.734Z,1999.90
2024-03-12T08:57:20.499Z,1999.90
2024-03-12T08:59:52.267Z,1999.90
2024-03-12T09:02:24.054Z,1999.90
2024-03-12T09:04:55.884Z,1999.90
2024-03-12T09:07:27.833Z,1999.90
2024-03-12T09:10:00.795Z,1999.90
2024-03-12T09:12:32.743Z,1999.90
2024-03-12T09:15:05.138Z,1999.90
2024-03-12T09:17:37.489Z,1999.90
2024-03-12T09:20:11.498Z,1999.90
2024-03-12T09:22:45.597Z,1999.90
2024-03-12T09:25:20.383Z,1999.90
2024-03-12T09:27:53.106Z,1999.90
2024-03-12T09:30:25.212Z,1999.90
2024-03-12T09:32:57.001Z,1999.90
2024-03-12T09:35:29.002Z,1999.90
2024-03-12T09:38:00.820Z,1999.90
2024-03-12T09:40:33.530Z,1999.90
2024-03-12T09:43:06.991Z,1999.90
2024-03-12T09:45:40.537Z,1999.90
2024-03-12T09:48:15.790Z,1999.90
2024-03-12T09:50:47.624Z,1999.90
2024-03-12T09:53:21.859Z,1999.90
2024-03-12T09:55:54.909Z,1999.90
2024-03-12T09:58:26.763Z,1999.90
2024-03-12T10:00:58.575Z,1999.90
2024-03-12T10:03:37.006Z,1999.90
2024-03-12T10:06:10.474Z,1999.90
2024-03-12T10:08:45.538Z,1999.90
2024-03-12T10:11:21.172Z,1999.90
2024-03-12T10:13:57.179Z,1999.90
2024-03-12T10:16:31.232Z,1999.90
2024-03-12T10:19:11.328Z,1999.90
2024-03-12T10:21:46.011Z,1999.90
2024-03-12T10:24:22.561Z,1999.90
2024-03-12T10:27:02.803Z,1999.90
2024-03-12T10:29:39.093Z,1999.90
2024-03-12T10:32:22.302Z,1999.90
2024-03-12T10:34:54.808Z,1999.90
2024-03-12T10:37:29.024Z,1999.90
2024-03-12T10:40:17.410Z,1999.90
2024-03-12T10:42:58.975Z,1999.90
2024-03-12T10:45:31.303Z,1999.90
2024-03-12T10:48:07.215Z,1999.90
2024-03-12T10:50:41.991Z,1999.90
2024-03-12T10:53:13.910Z,1999.90
2024-03-12T10:55:46.363Z,1999.90
2024-03-12T10:58:19.190Z,1999.90
2024-03-12T11:00:51.579Z,1999.90
2024-03-12T11:03:25.202Z,1999.90
2024-03-12T11:05:58.578Z,1999.90
2024-03-12T11:08:30.454Z,1999.90
2024-03-12T11:11:04.703Z,1999.90
2024-03-12T11:13:37.066Z,1999.90
2024-03-12T11:16:14.619Z,1999.90
2024-03-12T11:18:49.400Z,1999.90
2024-03-12T11:21:32.084Z,1999.90
2024-03-12T11:24:04.054Z,1999.90
2024-03-12T11:26:36.987Z,1999.90
2024-03-12T11:29:09.479Z,1999.90
2024-03-12T11:31:41.251Z,1999.90
2024-03-12T11:34:32.147Z,1999.90
2024-03-12T11:37:18.731Z,1999.90
2024-03-12T11:40:29.196Z,1999.90
2024-03-12T11:43:02.119Z,1999.90
2024-03-12T11:45:46.402Z,1999.90
2024-03-12T11:48:20.952Z,1999.90
2024-03-12T11:50:57.020Z,1999.90
2024-03-12T11:53:30.921Z,1999.90
2024-03-12T11:56:12.039Z,1999.90
2024-03-12T11:58:49.072Z,1999.90
2024-03-12T12:01:25.652Z,1999.90
2024-03-12T12:04:02.349Z,1999.90
2024-03-12T12:06:34.985Z,1999.90
2024-03-12T12:09:09.821Z,1999.90
2024-03-12T12:11:42.069Z,1999.90
2024-03-12T12:14:14.085Z,1999.90
2024-03-12T12:16:46.026Z,1999.90
2024-03-12T12:19:25.236Z,1999.90
2024-03-12T12:21:59.675Z,1999.90
2024-03-12T12:24:32.696Z,1999.90
2024-03-12T12:27:04.736Z,1999.90
2024-03-12T12:29:36.653Z,1999.90
2024-03-12T12:32:08.858Z,1999.90
2024-03-12T12:34:40.818Z,1999.90
2024-03-12T12:37:13.008Z,1999.90
2024-03-12T12:39:53.585Z,1999.90
2024-03-12T12:42:26.904Z,1999.90
2024-03-12T12:45:01.011Z,1999.90
2024-03-12T12:47:33.536Z,1999.90
2024-03-12T12:50:06.127Z,1999.90
2024-03-12T12:52:39.900Z,1999.90
2024-03-12T12:55:16.887Z,1999.90
2024-03-12T12:58:04.795Z,1999.90
2024-03-12T13:00:37.782Z,1999.90
2024-03-12T13:03:21.693Z,1999.90
2024-03-12T13:06:18.719Z,1999.90
2024-03-12T13:08:57.856Z,1999.90
2024-03-12T13:11:30.893Z,1999.90
2024-03-12T13:14:02.647Z,1999.90
2024-03-12T13:16:35.057Z,1999.90
2024-03-12T13:19:07.139Z,1999.90
2024-03-12T13:21:38.989Z,1999.90
2024-03-12T13:24:10.812Z,1999.90
2024-03-12T13:26:42.994Z,1999.90
2024-03-12T13:29:16.305Z,1999.90
2024-03-12T13:31:49.424Z,1999.90
2024-03-12T13:34:21.258Z,1999.90
2024-03-12T13:36:53.203Z,1999.90
2024-03-12T13:39:26.055Z,1999.90
2024-03-12T13:41:57.881Z,1999.90
2024-03-12T13:44:29.662Z,1999.90
2024-03-12T13:47:03.996Z,1999.90
2024-03-12T13:49:35.794Z,1999.90
2024-03-12T13:52:07.822Z,1999.90
2024-03-12T13:54:40.342Z,1999.90
2024-03-12T13:57:12.723Z,1999.90
2024-03-12T13:59:45.591Z,1999.90
2024-03-12T14:02:18.646Z,1999.90
2024-03-12T14:04:50.579Z,1999.90
2024-03-12T14:07:22.496Z,1999.90
2024-03-12T14:09:55.618Z,1999.90
2024-03-12T14:12:27.464Z,1999.90
2024-03-12T14:14:59.210Z,1999.90
2024-03-12T14:17:31.360Z,1999.90
2024-03-12T14:20:11.907Z,1999.90
2024-03-12T14:22:46.402Z,1999.90
2024-03-12T14:25:18.776Z,1999.90
2024-03-12T14:27:52.302Z,1999.90
2024-03-12T14:30:25.683Z,1999.90
2024-03-12T14:32:57.727Z,1999.90
2024-03-12T14:35:30.230Z,1999.90
2024-03-12T14:38:02.335Z,1999.90
2024-03-12T14:40:34.151Z,1999.90
2024-03-12T14:43:06.021Z,1999.90
2024-03-12T14:45:38.006Z,1999.90
2024-03-12T14:48:10.054Z,1999.90
2024-03-12T14:50:43.503Z,1999.90
2024-03-12T14:53:15.437Z,1999.90
2024-03-12T14:55:47.220Z,1999.90
2024-03-12T14:58:19.188Z,1999.90
2024-03-12T15:00:51.221Z,1999.90
2024-03-12T15:03:23.105Z,1999.90
2024-03-12T15:05:55.369Z,1999.90
2024-03-12T15:08:28.327Z,1999.90
2024-03-12T15:11:00.238Z,1999.90
2024-03-12T15:13:34.503Z,1999.90
2024-03-12T15:16:07.987Z,1999.90
2024-03-12T15:18:43.480Z,1999.90
2024-03-12T15:21:15.987Z,1999.90
2024-03-12T15:23:48.745Z,1999.90
2024-03-12T15:26:20.486Z,1999.90
2024-03-12T15:28:53.198Z,1999.90
2024-03-12T15:31:25.647Z,1999.90
2024-03-12T15:33:58.573Z,1999.90
2024-03-12T15:36:30.805Z,1999.90
2024-03-12T15:39:02.624Z,1999.90
2024-03-12T15:41:34.707Z,1999.90
2024-03-12T15:44:07.638Z,1999.90
2024-03-12T15:46:39.656Z,1999.90
2024-03-12T15:49:12.046Z,1999.90
2024-03-12T15:51:44.219Z,1999.90
2024-03-12T15:54:16.197Z,1999.90
2024-03-12T15:56:47.988Z,1999.90
2024-03-12T15:59:19.745Z,1999.90
2024-03-12T16:01:51.545Z,1999.90
2024-03-12T16:04:25.647Z,1999.90
2024-03-12T16:06:57.694Z,1999.90
2024-03-12T16:09:30.064Z,1999.90
2024-03-12T16:12:02.114Z,1999.90
2024-03-12T16:14:33.932Z,1999.90
2024-03-12T16:17:07.146Z,1999.90
2024-03-12T16:19:39.300Z,1999.90
2024-03-12T16:22:11.516Z,1999.90
2024-03-12T16:24:43.346Z,1999.90
2024-03-12T16:27:15.153Z,1999.90
2024-03-12T16:29:48.103Z,1999.90
2024-03-12T16:32:20.090Z,1999.90
2024-03-12T16:34:52.011Z,1999.90
2024-03-12T16:37:23.892Z,1999.90
2024-03-12T16:39:55.901Z,1999.90
2024-03-12T16:42:27.679Z,1999.90
2024-03-12T16:44:59.540Z,1999.90
2024-03-12T16:47:31.794Z,1999.90
2024-03-12T16:50:09.321Z,1999.90
2024-03-12T16:52:41.637Z,1999.90
2024-03-12T16:55:14.543Z,1999.90
2024-03-12T16:57:46.526Z,1999.90
2024-03-12T17:00:19.699Z,1999.90
2024-03-12T17:02:52.468Z,1999.90
2024-03-12T17:05:25.100Z,1999.90
2024-03-12T17:07:57.202Z,1999.90
2024-03-12T17:10:29.845Z,1999.90
2024-03-12T17:13:03.282Z,1999.90
2024-03-12T17:15:35.313Z,1999.90
2024-03-12T17:18:07.842Z,1999.90
2024-03-12T17:20:40.464Z,1999.90
2024-03-12T17:23:13.964Z,1999.90
2024-03-12T17:25:45.972Z,1999.90
2024-03-12T17:28:18.171Z,1999.90
2024-03-12T17:30:51.235Z,1999.90
2024-03-12T17:33:23.362Z,1999.90
2024-03-12T17:35:56.101Z,1999.90
2024-03-12T17:38:30.291Z,1999.90
2024-03-12T17:41:03.509Z,1999.90
2024-03-12T17:43:35.691Z,1999.90
2024-03-12T17:46:13.803Z,1999.90
2024-03-12T17:48:45.930Z,1999.90
2024-03-12T17:51:18.172Z,1999.90
2024-03-12T17:53:50.198Z,1999.90
2024-03-12T17:56:24.788Z,1999.90
2024-03-12T17:58:57.957Z,1999.90
2024-03-12T18:01:31.394Z,1999.90
2024-03-12T18:04:03.930Z,1999.90
2024-03-12T18:06:39.329Z,1999.90
2024-03-12T18:09:12.742Z,1999.90
2024-03-12T18:11:44.861Z,1999.90
2024-03-12T18:14:16.892Z,1999.90
2024-03-12T18:16:48.641Z,1999.90
2024-03-12T18:19:20.520Z,1999.90
2024-03-12T18:21:52.749Z,1999.90
2024-03-12T18:24:24.539Z,1999.90
2024-03-12T18:26:58.362Z,1999.90
2024-03-12T18:29:31.962Z,1999.90
2024-03-12T18:32:04.104Z,1999.90
2024-03-12T18:34:36.772Z,1999.90
2024-03-12T18:37:10.974Z,1999.90
2024-03-12T18:39:43.033Z,1999.90
2024-03-12T18:42:15.652Z,1999.90
2024-03-12T18:44:49.249Z,1999.90
2024-03-12T18:47:21.203Z,1999.90
2024-03-12T18:49:53.511Z,1999.90
2024-03-12T18:52:25.680Z,1999.90
2024-03-12T18:54:57.708Z,1999.90
2024-03-12T18:57:30.808Z,1999.90
2024-03-12T19:00:07.650Z,1999.90
2024-03-12T19:02:40.602Z,1999.90
2024-03-12T19:05:17.821Z,1999.90
2024-03-12T19:07:51.636Z,1999.90
2024-03-12T19:10:24.976Z,1999.90
2024-03-12T19:12:58.881Z,1999.90
2024-03-12T19:15:37.216Z,1999.90
2024-03-12T19:18:14.921Z,1999.90
2024-03-12T19:20:47.701Z,1999.90
2024-03-12T19:23:19.693Z,1999.90
2024-03-12T19:25:51.836Z,1999.90
2024-03-12T19:28:23.685Z,1999.90
2024-03-12T19:30:55.778Z,1999.90
2024-03-12T19:33:34.208Z,1999.90
2024-03-12T19:36:06.725Z,1999.90
2024-03-12T19:38:38.778Z,1999.90
2024-03-12T19:41:13.400Z,1999.90
2024-03-12T19:43:45.541Z,1999.90
2024-03-12T19:46:17.732Z,1999.90
2024-03-12T19:48:52.127Z,1999.90
2024-03-12T19:51:24.402Z,1999.90
2024-03-12T19:53:56.289Z,1999.90
2024-03-12T19:56:28.059Z,1999.90
2024-03-12T19:58:59.899Z,1999.90
2024-03-12T20:01:34.644Z,1999.90
2024-03-12T20:04:06.514Z,1999.90
2024-03-12T20:06:40.736Z,1999.90
2024-03-12T20:09:27.688Z,1999.90
2024-03-12T20:11:59.464Z,1999.90
2024-03-12T20:14:31.319Z,1999.90
2024-03-12T20:17:03.208Z,1999.90
2024-03-12T20:19:39.686Z,1999.90
2024-03-12T20:22:12.286Z,1999.90
2024-03-12T20:24:44.716Z,1999.90
2024-03-12T20:27:17.913Z,1999.90
2024-03-12T20:29:50.461Z,1999.90
2024-03-12T20:32:23.112Z,1999.90
2024-03-12T20:34:55.118Z,1999.90
2024-03-12T20:37:27.164Z,1999.90
2024-03-12T20:39:59.507Z,1999.90
2024-03-12T20:42:34.503Z,1999.90
2024-03-12T20:45:11.319Z,1999.90
2024-03-12T20:47:43.580Z,1999.90
2024-03-12T20:50:16.818Z,1999.90
2024-03-12T20:52:48.696Z,1999.90
2024-03-12T20:55:22.080Z,1999.90
2024-03-12T20:57:54.080Z,1999.90
2024-03-12T21:00:32.157Z,1999.90
2024-03-12T21:03:10.010Z,1999.90
2024-03-12T21:05:43.157Z,1999.90
2024-03-12T21:08:17.340Z,1999.90
2024-03-12T21:10:49.218Z,1999.90
2024-03-12T21:13:21.363Z,1999.90
2024-03-12T21:15:53.293Z,1999.90
2024-03-12T21:18:26.157Z,1999.90
2024-03-12T21:21:00.268Z,1999.90
2024-03-12T21:23:32.047Z,1999.90
2024-03-12T21:26:07.026Z,1999.90
2024-03-12T21:28:40.640Z,1999.90
2024-03-12T21:31:12.425Z,1999.90
2024-03-12T21:33:45.216Z,1999.90
2024-03-12T21:36:18.045Z,1999.90
2024-03-12T21:38:49.923Z,1999.90
2024-03-12T21:41:22.482Z,1999.90
2024-03-12T21:43:54.233Z,1999.90
2024-03-12T21:46:26.106Z,1999.90
2024-03-12T21:49:01.325Z,1999.90
2024-03-12T21:51:33.717Z,1999.90
2024-03-12T21:54:05.809Z,1999.90
2024-03-12T21:56:37.559Z,1999.90
2024-03-12T21:59:09.317Z,1999.90
2024-03-12T22:01:41.078Z,1999.90
2024-03-12T22:04:12.918Z,1999.90
2024-03-12T22:06:46.409Z,1999.90
2024-03-12T22:09:18.842Z,1999.90
2024-03-12T22:14:25.270Z,1999.90
2024-03-12T22:16:57.014Z,1999.90
2024-03-12T22:19:29.111Z,1999.90
2024-03-12T22:22:00.900Z,1999.90
2024-03-12T22:24:32.747Z,1999.90
2024-03-12T22:27:05.843Z,1999.90
2024-03-12T22:29:39.810Z,1999.90
2024-03-12T22:32:20.060Z,1999.90
2024-03-12T22:34:53.140Z,1999.90
2024-03-12T22:37:25.370Z,1999.90
2024-03-12T22:39:58.045Z,1999.90
2024-03-12T22:42:32.957Z,1999.90
2024-03-12T22:45:05.427Z,1999.90
2024-03-12T22:47:37.458Z,1999.90
2024-03-12T22:50:10.234Z,1999.90
2024-03-12T22:52:46.757Z,1999.90
2024-03-12T22:55:19.155Z,1999.90
2024-03-12T22:57:51.944Z,1999.90
2024-03-12T23:00:42.158Z,1999.90
2024-03-12T23:03:14.381Z,1999.90
2024-03-12T23:05:46.499Z,1999.90
2024-03-12T23:08:25.748Z,1999.90
2024-03-12T23:11:00.343Z,1999.90
2024-03-12T23:13:32.250Z,1999.90
2024-03-12T23:16:04.482Z,1999.90
2024-03-12T23:18:38.592Z,1999.90
2024-03-12T23:21:11.473Z,1999.90
2024-03-12T23:23:43.860Z,1999.90
2024-03-12T23:26:17.866Z,1999.90
2024-03-12T23:28:50.256Z,1999.90
2024-03-12T23:31:22.319Z,1999.90
2024-03-12T23:33:55.963Z,1999.90
2024-03-12T23:36:28.918Z,1999.90
2024-03-12T23:39:00.874Z,1999.90
2024-03-12T23:41:32.764Z,1999.90
2024-03-12T23:44:04.734Z,1999.90
2024-03-12T23:46:36.762Z,1999.90
2024-03-12T23:49:08.598Z,1999.90
2024-03-12T23:51:40.611Z,1999.90
2024-03-12T23:54:12.701Z,1999.90
2024-03-12T23:56:44.470Z,1999.90
2024-03-12T23:59:16.308Z,1999.90
